Time,TemperatureF,DewpointF,PressureIn,WindDirection,WindDirectionDegrees,WindSpeedMPH,WindSpeedGustMPH,Humidity,HourlyPrecipIn,Conditions,Clouds,dailyrainin,SolarRadiationWatts/m^2,SoftwareType,DateUTC
2013-06-25 00:01:00,48.0,47.0,-100.00,SW,224,1.0,5.0,96,0.04,,,0.20,0.000000,,2013-06-25 06:01:00,
2013-06-25 00:11:00,48.0,47.0,-100.00,SW,224,1.0,5.0,96,0.04,,,0.20,0.000000,,2013-06-25 06:11:00,
2013-06-25 00:21:00,48.0,47.0,-100.00,SW,224,1.0,5.0,96,0.04,,,0.20,0.000000,,2013-06-25 06:21:00,
2013-06-25 00:33:00,48.0,47.0,-100.00,SW,224,1.0,5.0,96,0.04,,,0.20,0.000000,,2013-06-25 06:33:00,
2013-06-25 01:02:00,48.0,47.0,-100.00,SSW,203,5.0,10.0,98,0.06,,,0.26,0.000000,,2013-06-25 07:02:00,
2013-06-25 01:11:00,48.0,47.0,-100.00,SSW,203,5.0,10.0,98,0.06,,,0.26,0.000000,,2013-06-25 07:11:00,
2013-06-25 01:22:00,48.0,47.0,-100.00,SSW,203,5.0,10.0,98,0.06,,,0.26,0.000000,,2013-06-25 07:22:00,
2013-06-25 01:33:00,48.0,47.0,-100.00,SSW,203,5.0,10.0,98,0.06,,,0.26,0.000000,,2013-06-25 07:33:00,
2013-06-25 02:01:00,47.0,46.0,-100.00,SSW,210,3.0,12.0,97,0.01,,,0.27,0.000000,,2013-06-25 08:01:00,
2013-06-25 02:11:00,47.0,46.0,-100.00,SSW,210,3.0,12.0,97,0.01,,,0.27,0.000000,,2013-06-25 08:11:00,
2013-06-25 02:21:00,47.0,46.0,-100.00,SSW,210,3.0,12.0,97,0.01,,,0.27,0.000000,,2013-06-25 08:21:00,
2013-06-25 02:33:00,47.0,46.0,-100.00,SSW,210,3.0,12.0,97,0.01,,,0.27,0.000000,,2013-06-25 08:33:00,
2013-06-25 03:02:00,47.0,46.0,-100.00,WSW,242,3.0,14.0,96,0.01,,,0.28,0.000000,,2013-06-25 09:02:00,
2013-06-25 03:12:00,47.0,46.0,-100.00,WSW,242,3.0,14.0,96,0.01,,,0.28,0.000000,,2013-06-25 09:12:00,
2013-06-25 03:21:00,47.0,46.0,-100.00,WSW,242,3.0,14.0,96,0.01,,,0.28,0.000000,,2013-06-25 09:21:00,
2013-06-25 03:33:00,47.0,46.0,-100.00,WSW,242,3.0,14.0,96,0.01,,,0.28,0.000000,,2013-06-25 09:33:00,
2013-06-25 04:01:00,47.0,46.0,-100.00,West,259,2.0,6.0,97,0.00,,,0.28,0.000000,,2013-06-25 10:01:00,
2013-06-25 04:11:00,47.0,46.0,-100.00,West,259,2.0,6.0,97,0.00,,,0.28,0.000000,,2013-06-25 10:11:00,
2013-06-25 04:21:00,47.0,46.0,-100.00,West,259,2.0,6.0,97,0.00,,,0.28,0.000000,,2013-06-25 10:21:00,
2013-06-25 04:33:00,47.0,46.0,-100.00,West,259,2.0,6.0,97,0.00,,,0.28,0.000000,,2013-06-25 10:33:00,
2013-06-25 05:02:00,47.0,46.0,-100.00,SW,217,4.0,8.0,95,0.00,,,0.28,0.000000,,2013-06-25 11:02:00,
2013-06-25 05:11:00,47.0,46.0,-100.00,SW,217,4.0,8.0,95,0.00,,,0.28,0.000000,,2013-06-25 11:11:00,
2013-06-25 05:21:00,47.0,46.0,-100.00,SW,217,4.0,8.0,95,0.00,,,0.28,0.000000,,2013-06-25 11:21:00,
2013-06-25 05:34:00,47.0,46.0,-100.00,SW,217,4.0,8.0,95,0.00,,,0.28,0.000000,,2013-06-25 11:34:00,
2013-06-25 06:01:00,47.0,46.0,-100.00,SSW,207,4.0,10.0,97,0.00,,,0.28,0.000000,,2013-06-25 12:01:00,
2013-06-25 06:11:00,47.0,46.0,-100.00,SSW,207,4.0,10.0,97,0.00,,,0.28,0.000000,,2013-06-25 12:11:00,
2013-06-25 06:22:00,47.0,46.0,-100.00,SSW,207,4.0,10.0,97,0.00,,,0.28,0.000000,,2013-06-25 12:22:00,
2013-06-25 06:33:00,47.0,46.0,-100.00,SSW,207,4.0,10.0,97,0.00,,,0.28,0.000000,,2013-06-25 12:33:00,
2013-06-25 07:01:00,47.0,46.0,-100.00,SW,216,4.0,13.0,97,0.01,,,0.29,6.000000,,2013-06-25 13:01:00,
2013-06-25 07:11:00,47.0,46.0,-100.00,SW,216,4.0,13.0,97,0.01,,,0.29,6.000000,,2013-06-25 13:11:00,
2013-06-25 07:22:00,47.0,46.0,-100.00,SW,216,4.0,13.0,97,0.01,,,0.29,6.000000,,2013-06-25 13:22:00,
2013-06-25 07:34:00,47.0,46.0,-100.00,SW,216,4.0,13.0,97,0.01,,,0.29,6.000000,,2013-06-25 13:34:00,
2013-06-25 08:11:00,47.0,46.0,-100.00,SW,215,5.0,11.0,95,0.02,,,0.31,30.000000,,2013-06-25 14:11:00,
2013-06-25 08:22:00,47.0,46.0,-100.00,SW,215,5.0,11.0,95,0.02,,,0.31,30.000000,,2013-06-25 14:22:00,
2013-06-25 08:34:00,47.0,46.0,-100.00,SW,215,5.0,11.0,95,0.02,,,0.31,30.000000,,2013-06-25 14:34:00,
2013-06-25 09:01:00,48.0,46.0,-100.00,SSW,210,6.0,15.0,93,0.00,,,-99.99,72.000000,,2013-06-25 15:01:00,
2013-06-25 09:11:00,48.0,46.0,-100.00,SSW,210,6.0,15.0,93,0.00,,,-99.99,72.000000,,2013-06-25 15:11:00,
2013-06-25 09:22:00,48.0,46.0,-100.00,SSW,210,6.0,15.0,93,0.00,,,-99.99,72.000000,,2013-06-25 15:22:00,
2013-06-25 09:32:00,48.0,46.0,-100.00,SSW,210,6.0,15.0,93,0.00,,,-99.99,72.000000,,2013-06-25 15:32:00,
2013-06-25 10:03:00,51.0,47.0,-100.00,SSW,208,6.0,14.0,86,0.00,,,0.31,276.000000,,2013-06-25 16:03:00,
2013-06-25 10:12:00,51.0,47.0,-100.00,SSW,208,6.0,14.0,86,0.00,,,0.31,276.000000,,2013-06-25 16:12:00,
2013-06-25 10:23:00,51.0,47.0,-100.00,SSW,208,6.0,14.0,86,0.00,,,0.31,276.000000,,2013-06-25 16:23:00,
2013-06-25 10:34:00,51.0,47.0,-100.00,SSW,208,6.0,14.0,86,0.00,,,0.31,276.000000,,2013-06-25 16:34:00,
2013-06-25 11:01:00,51.0,46.0,-100.00,SSW,212,5.0,14.0,84,0.00,,,0.31,264.000000,,2013-06-25 17:01:00,
2013-06-25 11:11:00,51.0,46.0,-100.00,SSW,212,5.0,14.0,84,0.00,,,0.31,264.000000,,2013-06-25 17:11:00,
2013-06-25 11:22:00,51.0,46.0,-100.00,SSW,212,5.0,14.0,84,0.00,,,0.31,264.000000,,2013-06-25 17:22:00,
2013-06-25 11:33:00,51.0,46.0,-100.00,SSW,212,5.0,14.0,84,0.00,,,0.31,264.000000,,2013-06-25 17:33:00,
2013-06-25 12:02:00,59.0,48.0,-100.00,SW,228,7.0,15.0,66,0.00,,,0.31,748.000000,,2013-06-25 18:02:00,
2013-06-25 12:12:00,59.0,48.0,-100.00,SW,228,7.0,15.0,66,0.00,,,0.31,748.000000,,2013-06-25 18:12:00,
2013-06-25 12:22:00,59.0,48.0,-100.00,SW,228,7.0,15.0,66,0.00,,,0.31,748.000000,,2013-06-25 18:22:00,
2013-06-25 12:34:00,59.0,48.0,-100.00,SW,228,7.0,15.0,66,0.00,,,0.31,748.000000,,2013-06-25 18:34:00,
2013-06-25 13:01:00,59.0,46.0,-100.00,SSW,212,6.0,16.0,61,0.00,,,0.31,794.000000,,2013-06-25 19:01:00,
2013-06-25 13:12:00,59.0,46.0,-100.00,SSW,212,6.0,16.0,61,0.00,,,0.31,794.000000,,2013-06-25 19:12:00,
2013-06-25 13:22:00,59.0,46.0,-100.00,SSW,212,6.0,16.0,61,0.00,,,0.31,794.000000,,2013-06-25 19:22:00,
2013-06-25 13:33:00,59.0,46.0,-100.00,SSW,212,6.0,16.0,61,0.00,,,0.31,794.000000,,2013-06-25 19:33:00,
2013-06-25 14:01:00,58.0,44.0,-100.00,SSW,211,6.0,14.0,59,0.00,,,0.31,206.000000,,2013-06-25 20:01:00,
2013-06-25 14:11:00,58.0,44.0,-100.00,SSW,211,6.0,14.0,59,0.00,,,0.31,206.000000,,2013-06-25 20:11:00,
2013-06-25 14:22:00,58.0,44.0,-100.00,SSW,211,6.0,14.0,59,0.00,,,0.31,206.000000,,2013-06-25 20:22:00,
2013-06-25 14:33:00,58.0,44.0,-100.00,SSW,211,6.0,14.0,59,0.00,,,0.31,206.000000,,2013-06-25 20:33:00,
2013-06-25 15:01:00,60.0,42.0,-100.00,SW,221,5.0,15.0,52,0.00,,,0.31,329.000000,,2013-06-25 21:01:00,
2013-06-25 15:11:00,60.0,42.0,-100.00,SW,221,5.0,15.0,52,0.00,,,0.31,329.000000,,2013-06-25 21:11:00,
2013-06-25 15:22:00,60.0,42.0,-100.00,SW,221,5.0,15.0,52,0.00,,,0.31,329.000000,,2013-06-25 21:22:00,
2013-06-25 15:33:00,60.0,42.0,-100.00,SW,221,5.0,15.0,52,0.00,,,0.31,329.000000,,2013-06-25 21:33:00,
2013-06-25 16:01:00,62.0,45.0,-100.00,SSW,212,4.0,16.0,54,0.00,,,0.31,342.000000,,2013-06-25 22:01:00,
2013-06-25 16:11:00,62.0,45.0,-100.00,SSW,212,4.0,16.0,54,0.00,,,0.31,342.000000,,2013-06-25 22:11:00,
2013-06-25 16:22:00,62.0,45.0,-100.00,SSW,212,4.0,16.0,54,0.00,,,0.31,342.000000,,2013-06-25 22:22:00,
2013-06-25 16:33:00,62.0,45.0,-100.00,SSW,212,4.0,16.0,54,0.00,,,0.31,342.000000,,2013-06-25 22:33:00,
2013-06-25 17:34:00,68.0,46.0,-100.00,SW,214,6.0,15.0,45,0.00,,,0.31,622.000000,,2013-06-25 23:34:00,
2013-06-25 19:33:00,56.0,48.0,-100.00,SW,214,5.0,11.0,74,0.01,,,0.32,104.000000,,2013-06-26 01:33:00,
2013-06-25 20:02:00,55.0,49.0,-100.00,SW,216,4.0,7.0,81,0.00,,,0.23,25.000000,,2013-06-26 02:02:00,
2013-06-25 20:11:00,55.0,49.0,-100.00,SW,216,4.0,7.0,81,0.00,,,0.23,25.000000,,2013-06-26 02:11:00,
2013-06-25 20:22:00,55.0,49.0,-100.00,SW,216,4.0,7.0,81,0.00,,,0.23,25.000000,,2013-06-26 02:22:00,
2013-06-25 20:34:00,55.0,49.0,-100.00,SW,216,4.0,7.0,81,0.00,,,0.23,25.000000,,2013-06-26 02:34:00,
2013-06-25 21:02:00,54.0,48.0,-100.00,SW,227,3.0,9.0,81,0.00,,,0.21,20.000000,,2013-06-26 03:02:00,
2013-06-25 21:11:00,54.0,48.0,-100.00,SW,227,3.0,9.0,81,0.00,,,0.21,20.000000,,2013-06-26 03:11:00,
2013-06-25 21:22:00,54.0,48.0,-100.00,SW,227,3.0,9.0,81,0.00,,,0.21,20.000000,,2013-06-26 03:22:00,
2013-06-25 21:33:00,54.0,48.0,-100.00,SW,227,3.0,9.0,81,0.00,,,0.21,20.000000,,2013-06-26 03:33:00,
2013-06-25 22:01:00,54.0,48.0,-100.00,West,265,1.0,9.0,80,0.00,,,0.20,3.000000,,2013-06-26 04:01:00,
2013-06-25 22:12:00,54.0,48.0,-100.00,West,265,1.0,9.0,80,0.00,,,0.20,3.000000,,2013-06-26 04:12:00,
2013-06-25 22:22:00,54.0,48.0,-100.00,West,265,1.0,9.0,80,0.00,,,0.20,3.000000,,2013-06-26 04:22:00,
2013-06-25 22:33:00,54.0,48.0,-100.00,West,265,1.0,9.0,80,0.00,,,0.20,3.000000,,2013-06-26 04:33:00,
2013-06-25 23:02:00,53.0,49.0,-100.00,SSW,199,5.0,15.0,85,0.00,,,0.16,0.000000,,2013-06-26 05:02:00,
2013-06-25 23:11:00,53.0,49.0,-100.00,SSW,199,5.0,15.0,85,0.00,,,0.16,0.000000,,2013-06-26 05:11:00,
2013-06-25 23:21:00,53.0,49.0,-100.00,SSW,199,5.0,15.0,85,0.00,,,0.16,0.000000,,2013-06-26 05:21:00,
2013-06-25 23:33:00,53.0,49.0,-100.00,SSW,199,5.0,15.0,85,0.00,,,0.16,0.000000,,2013-06-26 05:33:00,